Time;durP1;ratioP1;P1;durP2;ratioP2;P2;SDS_P1;SDS_P2;PMS_P1;PMS_P2;Temp;Humidity;BMP_temperature;BMP_pressure;BME280_temperature;BME280_humidity;BME280_pressure;Samples;Min_cycle;Max_cycle;Signal;HPM_P1;HPM_P2
2022/12/31 00:00:19;;;;;;;1999.90;999.90;;;;;;;8.45;100.00;98528.75;5023659;28;20389;-74
2022/12/31 00:02:44;;;;;;;1999.90;999.90;;;;;;;8.37;100.00;98529.25;5024866;28;20025;-75
2022/12/31 00:05:10;;;;;;;1999.90;999.90;;;;;;;8.39;100.00;98534.44;5040428;28;20021;-73
2022/12/31 00:07:35;;;;;;;1999.90;999.90;;;;;;;8.39;100.00;98538.00;5028669;28;20045;-74
2022/12/31 00:10:02;;;;;;;1999.90;999.90;;;;;;;8.48;100.00;98541.00;5028965;28;20116;-74
2022/12/31 00:12:27;;;;;;;1999.90;999.90;;;;;;;8.48;100.00;98544.56;5025344;28;20061;-74
2022/12/31 00:14:55;;;;;;;1999.90;999.90;;;;;;;8.53;100.00;98547.28;5029470;28;20034;-73
2022/12/31 00:17:20;;;;;;;1999.90;999.90;;;;;;;8.68;100.00;98543.00;5047286;28;20052;-74
2022/12/31 00:19:45;;;;;;;1999.90;999.90;;;;;;;8.64;100.00;98550.88;5035290;28;20065;-74
2022/12/31 00:22:11;;;;;;;1999.90;999.90;;;;;;;8.66;100.00;98561.50;5045651;28;20048;-74
2022/12/31 00:24:36;;;;;;;1999.90;999.90;;;;;;;8.68;100.00;98553.91;5037131;28;20436;-74
2022/12/31 00:27:02;;;;;;;1999.90;999.90;;;;;;;8.78;100.00;98556.63;5020419;28;20091;-75
2022/12/31 00:29:27;;;;;;;1999.90;999.90;;;;;;;8.85;100.00;98568.13;5039129;28;20049;-75
2022/12/31 00:31:52;;;;;;;1999.90;999.90;;;;;;;9.01;100.00;98561.63;5048005;28;20029;-74
2022/12/31 00:34:18;;;;;;;1999.90;999.90;;;;;;;9.03;100.00;98573.88;5038851;28;20021;-73
2022/12/31 00:36:44;;;;;;;1999.90;999.90;;;;;;;9.11;100.00;98576.06;5029395;28;20030;-74
2022/12/31 00:39:10;;;;;;;1999.90;999.90;;;;;;;9.15;100.00;98582.63;5011262;28;20045;-73
2022/12/31 00:41:36;;;;;;;1999.90;999.90;;;;;;;9.15;100.00;98571.72;5021871;28;20029;-72
2022/12/31 00:44:02;;;;;;;1999.90;999.90;;;;;;;9.30;100.00;98583.75;5034575;28;20108;-73
2022/12/31 00:46:27;;;;;;;1999.90;999.90;;;;;;;9.40;100.00;98581.03;5032385;28;20037;-75
2022/12/31 00:48:52;;;;;;;1999.90;999.90;;;;;;;9.44;100.00;98582.94;5032448;28;20120;-73
2022/12/31 00:51:21;;;;;;;1999.90;999.90;;;;;;;9.47;100.00;98589.78;5032388;28;20037;-75
2022/12/31 00:53:46;;;;;;;1999.90;999.90;;;;;;;9.57;100.00;98589.78;5031578;28;20050;-73
2022/12/31 00:56:14;;;;;;;1999.90;999.90;;;;;;;9.67;100.00;98598.81;5026868;28;20030;-73
2022/12/31 00:58:40;;;;;;;1999.90;999.90;;;;;;;9.71;100.00;98599.03;5022762;28;20017;-74
2022/12/31 01:01:09;;;;;;;1999.90;999.90;;;;;;;9.83;100.00;98605.06;5021059;28;20072;-73
2022/12/31 01:03:35;;;;;;;1999.90;999.90;;;;;;;9.91;100.00;98601.78;5020404;28;20088;-74
2022/12/31 01:06:02;;;;;;;1999.90;999.90;;;;;;;9.97;100.00;98610.78;5021064;28;20018;-73
2022/12/31 01:08:30;;;;;;;1999.90;999.90;;;;;;;10.02;100.00;98610.81;5023901;28;20025;-74
2022/12/31 01:13:39;;;;;;;1999.90;999.90;;;;;;;10.14;100.00;98633.22;5019686;28;20029;-72
2022/12/31 01:16:10;;;;;;;1999.90;999.90;;;;;;;10.17;100.00;98638.13;5021634;28;20398;-72
2022/12/31 01:18:35;;;;;;;1999.90;999.90;;;;;;;10.16;100.00;98636.50;5022438;28;20097;-72
2022/12/31 01:21:06;;;;;;;1999.90;999.90;;;;;;;10.23;100.00;98653.44;5011906;28;20026;-69
2022/12/31 01:23:32;;;;;;;1999.90;999.90;;;;;;;10.27;100.00;98651.78;5012007;28;20076;-74
2022/12/31 01:26:02;;;;;;;1999.90;999.90;;;;;;;10.29;100.00;98649.59;5014400;28;20041;-74
2022/12/31 01:28:28;;;;;;;1999.90;999.90;;;;;;;10.30;100.00;98640.31;5029075;28;20091;-74
2022/12/31 01:30:54;;;;;;;1999.90;999.90;;;;;;;10.33;100.00;98649.88;5031548;28;20025;-74
2022/12/31 01:33:19;;;;;;;1999.90;999.90;;;;;;;10.25;100.00;98651.22;5031385;28;20113;-74
2022/12/31 01:35:44;;;;;;;1999.90;999.90;;;;;;;10.30;100.00;98648.50;5028269;28;20478;-73
2022/12/31 01:38:10;;;;;;;1999.90;999.90;;;;;;;10.29;100.00;98649.59;5025557;28;20029;-74
2022/12/31 01:40:36;;;;;;;1999.90;999.90;;;;;;;10.38;100.00;98650.66;5031636;28;20397;-74
2022/12/31 01:43:02;;;;;;;1999.90;999.90;;;;;;;10.33;100.00;98652.59;5031341;28;20058;-74
2022/12/31 01:45:28;;;;;;;1999.90;999.90;;;;;;;10.31;100.00;98658.31;5031128;28;20022;-74
2022/12/31 01:47:57;;;;;;;1999.90;999.90;;;;;;;10.32;100.00;98654.50;5031232;28;20033;-74
2022/12/31 01:50:32;;;;;;;1999.90;999.90;;;;;;;10.37;100.00;98665.44;5031265;28;20029;-75
2022/12/31 01:53:03;;;;;;;1999.90;999.90;;;;;;;10.35;100.00;98664.91;5030448;28;20041;-74
2022/12/31 01:55:47;;;;;;;1999.90;999.90;;;;;;;10.37;100.00;98659.97;5031595;28;20449;-73
2022/12/31 01:58:20;;;;;;;1999.90;999.90;;;;;;;10.35;100.00;98659.44;5030965;28;20123;-74
2022/12/31 02:00:46;;;;;;;1999.90;999.90;;;;;;;10.36;100.00;98658.34;5032374;28;20025;-74
2022/12/31 02:03:12;;;;;;;1999.90;999.90;;;;;;;10.33;100.00;98656.16;5030766;28;20492;-74
2022/12/31 02:05:56;;;;;;;1999.90;999.90;;;;;;;10.35;100.00;98651.22;5029292;28;20110;-74
2022/12/31 02:08:22;;;;;;;1999.90;999.90;;;;;;;10.41;100.00;98661.06;5030679;28;20006;-74
2022/12/31 02:10:47;;;;;;;1999.90;999.90;;;;;;;10.44;100.00;98667.88;5030676;28;20489;-73
2022/12/31 02:13:14;;;;;;;1999.90;999.90;;;;;;;10.45;100.00;98667.63;5030416;28;20482;-73
2022/12/31 02:16:04;;;;;;;1999.90;999.90;;;;;;;10.49;100.00;98657.78;5030686;28;20025;-74
2022/12/31 02:18:47;;;;;;;1999.90;999.90;;;;;;;10.49;100.00;98657.78;5030638;28;20362;-74
2022/12/31 02:21:27;;;;;;;1999.90;999.90;;;;;;;10.48;100.00;98664.31;5030767;28;21489;-74
2022/12/31 02:24:14;;;;;;;1999.90;999.90;;;;;;;10.50;100.00;98670.31;5030311;28;20037;-73
2022/12/31 02:26:48;;;;;;;1999.90;999.90;;;;;;;10.46;100.00;98674.69;5023482;28;20096;-73
2022/12/31 02:29:51;;;;;;;1999.90;999.90;;;;;;;10.46;100.00;98687.59;5010913;28;20068;-74
2022/12/31 02:32:22;;;;;;;1999.90;999.90;;;;;;;10.51;100.00;98688.38;5010522;28;20049;-74
2022/12/31 02:34:53;;;;;;;1999.90;999.90;;;;;;;10.54;100.00;98687.84;5016615;28;20388;-74
2022/12/31 02:37:22;;;;;;;1999.90;999.90;;;;;;;10.54;100.00;98687.84;5030439;28;20048;-74
2022/12/31 02:39:48;;;;;;;1999.90;999.90;;;;;;;10.60;100.00;98691.38;5030311;28;20063;-74
2022/12/31 02:42:13;;;;;;;1999.90;999.90;;;;;;;10.64;100.00;98693.28;5029993;28;20032;-73
2022/12/31 02:44:40;;;;;;;1999.90;999.90;;;;;;;10.61;100.00;98693.84;5031449;28;20026;-73
2022/12/31 02:47:22;;;;;;;1999.90;999.90;;;;;;;10.68;100.00;98691.63;5032285;28;20029;-74
2022/12/31 02:49:47;;;;;;;1999.90;999.90;;;;;;;10.74;100.00;98687.75;5034571;28;20037;-73
2022/12/31 02:52:37;;;;;;;1999.90;999.90;;;;;;;10.77;100.00;98695.41;5033841;28;20078;-74
2022/12/31 02:55:12;;;;;;;1999.90;999.90;;;;;;;10.75;100.00;98708.56;5034501;28;20493;-74
2022/12/31 02:58:10;;;;;;;1999.90;999.90;;;;;;;10.71;100.00;98701.22;5033141;28;20037;-73
2022/12/31 03:03:27;;;;;;;1999.90;999.90;;;;;;;10.65;100.00;98705.84;5033932;28;20444;-73
2022/12/31 03:05:57;;;;;;;1999.90;999.90;;;;;;;10.65;100.00;98708.59;5034404;28;20436;-74
2022/12/31 03:08:24;;;;;;;1999.90;999.90;;;;;;;10.59;100.00;98704.22;5034120;28;20029;-73
2022/12/31 03:10:50;;;;;;;1999.90;999.90;;;;;;;10.59;100.00;98715.16;5034125;28;20456;-73
2022/12/31 03:13:16;;;;;;;1999.90;999.90;;;;;;;10.62;100.00;98706.41;5033678;28;20060;-74
2022/12/31 03:15:41;;;;;;;1999.90;999.90;;;;;;;10.54;100.00;98698.78;5033818;28;20029;-73
2022/12/31 03:18:10;;;;;;;1999.90;999.90;;;;;;;10.64;100.00;98711.63;5032662;28;20433;-73
2022/12/31 03:23:39;;;;;;;1999.90;999.90;;;;;;;10.66;100.00;98707.50;5033553;28;20043;-74
2022/12/31 03:26:10;;;;;;;1999.90;999.90;;;;;;;10.59;100.00;98706.97;5034217;28;20057;-73
2022/12/31 03:28:38;;;;;;;1999.90;999.90;;;;;;;10.62;100.00;98711.88;5033833;28;20473;-74
2022/12/31 03:31:04;;;;;;;1999.90;999.90;;;;;;;10.57;100.00;98713.81;5032762;28;20029;-74
2022/12/31 03:33:35;;;;;;;1999.90;999.90;;;;;;;10.57;100.00;98709.16;5035248;28;20044;-74
2022/12/31 03:36:06;;;;;;;1999.90;999.90;;;;;;;10.56;100.00;98704.78;5033942;28;20106;-74
2022/12/31 03:38:31;;;;;;;1999.90;999.90;;;;;;;10.55;100.00;98708.63;5033614;28;20105;-73
2022/12/31 03:40:57;;;;;;;1999.90;999.90;;;;;;;10.52;100.00;98700.97;5033716;28;20120;-73
2022/12/31 03:43:22;;;;;;;1999.90;999.90;;;;;;;10.47;100.00;98709.19;5033166;28;20116;-73
2022/12/31 03:45:50;;;;;;;1999.90;999.90;;;;;;;10.46;100.00;98712.19;5033130;28;20044;-73
2022/12/31 03:48:16;;;;;;;1999.90;999.90;;;;;;;10.45;100.00;98711.38;5033089;28;20041;-73
2022/12/31 03:50:41;;;;;;;1999.90;999.90;;;;;;;10.38;100.00;98710.00;5033226;28;20425;-73
2022/12/31 03:53:07;;;;;;;1999.90;999.90;;;;;;;10.34;100.00;98720.66;5033048;28;20052;-73
2022/12/31 03:55:32;;;;;;;1999.90;999.90;;;;;;;10.24;100.00;98717.13;5033806;28;20386;-73
2022/12/31 03:57:58;;;;;;;1999.90;999.90;;;;;;;10.21;100.00;98715.78;5032530;28;20048;-73
2022/12/31 04:00:23;;;;;;;1999.90;999.90;;;;;;;10.21;100.00;98722.03;5033015;28;20029;-74
2022/12/31 04:02:48;;;;;;;1999.90;999.90;;;;;;;10.09;100.00;98720.66;5032948;28;20793;-73
2022/12/31 04:05:16;;;;;;;1999.90;999.90;;;;;;;10.01;100.00;98727.50;5033013;28;20061;-73
2022/12/31 04:07:42;;;;;;;1999.90;999.90;;;;;;;10.07;100.00;98725.56;5032932;28;20033;-73
2022/12/31 04:10:09;;;;;;;1999.90;999.90;;;;;;;9.99;100.00;98723.41;5033014;28;20455;-73
2022/12/31 04:12:35;;;;;;;1999.90;999.90;;;;;;;9.90;100.00;98714.09;5033181;28;20025;-73
2022/12/31 04:15:01;;;;;;;1999.90;999.90;;;;;;;9.86;100.00;98723.94;5032092;28;20025;-73
2022/12/31 04:17:26;;;;;;;1999.90;999.90;;;;;;;9.83;100.00;98724.47;5022195;28;20080;-73
2022/12/31 04:19:52;;;;;;;1999.90;999.90;;;;;;;9.73;100.00;98727.19;5013857;28;20125;-73
2022/12/31 04:22:21;;;;;;;1999.90;999.90;;;;;;;9.74;100.00;98737.03;5013329;28;20065;-74
2022/12/31 04:24:46;;;;;;;1999.90;999.90;;;;;;;9.66;100.00;98736.47;5013683;28;20045;-73
2022/12/31 04:27:13;;;;;;;1999.90;999.90;;;;;;;9.69;100.00;98744.13;5013150;28;20030;-73
2022/12/31 04:29:38;;;;;;;1999.90;999.90;;;;;;;9.63;100.00;98731.53;5014022;28;20053;-74
2022/12/31 04:32:05;;;;;;;1999.90;999.90;;;;;;;9.70;100.00;98736.75;5012408;28;20486;-73
2022/12/31 04:34:30;;;;;;;1999.90;999.90;;;;;;;9.73;100.00;98740.84;5011521;28;20022;-73
2022/12/31 04:36:56;;;;;;;1999.90;999.90;;;;;;;9.60;100.00;98734.81;5012997;28;20045;-74
2022/12/31 04:39:21;;;;;;;1999.90;999.90;;;;;;;9.65;100.00;98745.75;5012131;28;20029;-73
2022/12/31 04:41:47;;;;;;;1999.90;999.90;;;;;;;9.67;100.00;98743.56;5012671;28;20378;-73
2022/12/31 04:44:12;;;;;;;1999.90;999.90;;;;;;;9.52;100.00;98746.25;5012352;28;20053;-72
2022/12/31 04:46:38;;;;;;;1999.90;999.90;;;;;;;9.52;100.00;98762.63;5020364;28;20061;-73
2022/12/31 04:49:03;;;;;;;1999.90;999.90;;;;;;;9.51;100.00;98750.09;5031920;28;20117;-73
2022/12/31 04:51:30;;;;;;;1999.90;999.90;;;;;;;9.50;100.00;98759.34;5019761;28;20589;-73
2022/12/31 04:53:56;;;;;;;1999.90;999.90;;;;;;;9.41;100.00;98760.97;5011424;28;20041;-73
2022/12/31 04:56:21;;;;;;;1999.90;999.90;;;;;;;9.42;100.00;98767.25;5012274;28;20454;-72
2022/12/31 04:58:47;;;;;;;1999.90;999.90;;;;;;;9.39;100.00;98762.34;5011687;28;20050;-73
2022/12/31 05:01:13;;;;;;;1999.90;999.90;;;;;;;9.33;100.00;98763.41;5011772;28;20109;-73
2022/12/31 05:03:39;;;;;;;1999.90;999.90;;;;;;;9.37;100.00;98759.84;5024435;28;20037;-73
2022/12/31 05:06:07;;;;;;;1999.90;999.90;;;;;;;9.38;100.00;98764.22;5027982;28;20022;-73
2022/12/31 05:08:36;;;;;;;1999.90;999.90;;;;;;;9.34;100.00;98757.66;5011574;28;20363;-73
2022/12/31 05:11:01;;;;;;;1999.90;999.90;;;;;;;9.33;100.00;98768.88;5011291;28;20026;-73
2022/12/31 05:13:28;;;;;;;1999.90;999.90;;;;;;;9.44;100.00;98770.53;5030444;28;20091;-73
2022/12/31 05:15:54;;;;;;;1999.90;999.90;;;;;;;9.42;100.00;98779.00;5030901;28;20462;-73
2022/12/31 05:18:20;;;;;;;1999.90;999.90;;;;;;;9.46;100.00;98788.28;5031624;28;20032;-74
2022/12/31 05:20:46;;;;;;;1999.90;999.90;;;;;;;9.48;100.00;98791.59;5031490;28;20041;-73
2022/12/31 05:23:12;;;;;;;1999.90;999.90;;;;;;;9.54;100.00;98795.97;5025179;28;20021;-73
2022/12/31 05:25:38;;;;;;;1999.90;999.90;;;;;;;9.45;100.00;98797.59;5022328;28;20034;-73
2022/12/31 05:28:03;;;;;;;1999.90;999.90;;;;;;;9.44;100.00;98803.28;5011864;28;20028;-74
2022/12/31 05:30:28;;;;;;;1999.90;999.90;;;;;;;9.41;100.00;98804.66;5009720;28;20025;-74
2022/12/31 05:32:54;;;;;;;1999.90;999.90;;;;;;;9.46;100.00;98795.69;5010801;28;20116;-73
2022/12/31 05:35:19;;;;;;;1999.90;999.90;;;;;;;9.44;100.00;98798.66;5017672;28;20077;-73
2022/12/31 05:37:44;;;;;;;1999.90;999.90;;;;;;;9.45;100.00;98807.69;5031183;28;20075;-73
2022/12/31 05:40:11;;;;;;;1999.90;999.90;;;;;;;9.40;100.00;98800.28;5030757;28;20121;-73
2022/12/31 05:42:37;;;;;;;1999.90;999.90;;;;;;;9.42;100.00;98803.56;5030970;28;20089;-73
2022/12/31 05:45:02;;;;;;;1999.90;999.90;;;;;;;9.41;100.00;98801.94;5030973;28;20030;-73
2022/12/31 05:47:28;;;;;;;1999.90;999.90;;;;;;;9.38;100.00;98799.72;5031267;28;20029;-73
2022/12/31 05:49:53;;;;;;;1999.90;999.90;;;;;;;9.38;100.00;98805.19;5030988;28;20477;-73
2022/12/31 05:52:19;;;;;;;1999.90;999.90;;;;;;;9.40;100.00;98808.47;5030384;28;20033;-73
2022/12/31 05:54:47;;;;;;;1999.90;999.90;;;;;;;9.49;100.00;98812.31;5030683;28;20401;-73
2022/12/31 05:57:12;;;;;;;1999.90;999.90;;;;;;;9.44;100.00;98808.75;5031282;28;20120;-72
2022/12/31 05:59:38;;;;;;;1999.90;999.90;;;;;;;9.44;100.00;98817.78;5030663;28;20431;-73
2022/12/31 06:02:04;;;;;;;1999.90;999.90;;;;;;;9.45;100.00;98816.69;5029322;28;20033;-73
2022/12/31 06:04:29;;;;;;;1999.90;999.90;;;;;;;9.50;100.00;98830.34;5031178;28;20038;-74
2022/12/31 06:06:55;;;;;;;1999.90;999.90;;;;;;;9.56;100.00;98834.75;5030881;28;20018;-74
2022/12/31 06:09:21;;;;;;;1999.90;999.90;;;;;;;9.41;100.00;98831.97;5030725;28;20032;-73
2022/12/31 06:11:48;;;;;;;1999.90;999.90;;;;;;;9.40;100.00;98843.97;5030484;28;20044;-73
2022/12/31 06:14:13;;;;;;;1999.90;999.90;;;;;;;9.36;100.00;98840.13;5030963;28;20044;-73
2022/12/31 06:16:39;;;;;;;1999.90;999.90;;;;;;;9.29;100.00;98853.19;5030894;28;20401;-73
2022/12/31 06:19:05;;;;;;;1999.90;999.90;;;;;;;9.26;100.00;98861.09;5031209;28;20021;-73
2022/12/31 06:21:30;;;;;;;1999.90;999.90;;;;;;;9.18;100.00;98856.94;5030127;28;20087;-73
2022/12/31 06:23:57;;;;;;;1999.90;999.90;;;;;;;9.16;100.00;98859.13;5030330;28;20374;-73
2022/12/31 06:26:23;;;;;;;1999.90;999.90;;;;;;;9.20;100.00;98862.16;5030985;28;20034;-73
2022/12/31 06:28:48;;;;;;;1999.90;999.90;;;;;;;9.15;100.00;98869.22;5030593;28;20032;-73
2022/12/31 06:31:16;;;;;;;1999.90;999.90;;;;;;;9.12;100.00;98858.00;5030495;28;20045;-74
2022/12/31 06:33:42;;;;;;;1999.90;999.90;;;;;;;9.09;100.00;98866.72;5030476;28;20033;-73
2022/12/31 06:36:12;;;;;;;1999.90;999.90;;;;;;;9.03;100.00;98868.59;5030597;28;20033;-73
2022/12/31 06:38:39;;;;;;;1999.90;999.90;;;;;;;8.96;100.00;98861.72;5030453;28;20032;-72
2022/12/31 06:41:09;;;;;;;1999.90;999.90;;;;;;;8.90;100.00;98865.47;5030477;28;20040;-73
2022/12/31 06:43:36;;;;;;;1999.90;999.90;;;;;;;8.91;100.00;98856.22;5030519;28;20075;-73
2022/12/31 06:46:03;;;;;;;1999.90;999.90;;;;;;;8.95;100.00;98860.91;5029063;28;20029;-73
2022/12/31 06:48:29;;;;;;;1999.90;999.90;;;;;;;8.85;100.00;98857.28;5030619;28;20025;-74
2022/12/31 06:50:54;;;;;;;1999.90;999.90;;;;;;;8.90;100.00;98874.50;5030082;28;20048;-75
2022/12/31 06:53:19;;;;;;;1999.90;999.90;;;;;;;8.87;100.00;98879.66;5030866;28;20054;-75
2022/12/31 06:55:47;;;;;;;1999.90;999.90;;;;;;;8.68;100.00;98887.41;5031587;28;20065;-75
2022/12/31 06:58:14;;;;;;;1999.90;999.90;;;;;;;8.63;100.00;98886.56;5030561;28;20025;-75
2022/12/31 07:01:07;;;;;;;1999.90;999.90;;;;;;;8.68;100.00;98897.53;5026080;28;20086;-75
2022/12/31 07:04:06;;;;;;;1999.90;999.90;;;;;;;8.71;100.00;98888.81;5010729;28;20124;-75
2022/12/31 07:06:54;;;;;;;1999.90;999.90;;;;;;;8.59;100.00;98900.72;5008940;28;20054;-74
2022/12/31 07:09:28;;;;;;;1999.90;999.90;;;;;;;8.49;100.00;98897.06;5011575;28;20022;-75
2022/12/31 07:12:11;;;;;;;1999.90;999.90;;;;;;;8.43;100.00;98898.91;5010541;28;20504;-75
2022/12/31 07:14:45;;;;;;;1999.90;999.90;;;;;;;8.47;100.00;98900.06;5011277;28;20030;-74
2022/12/31 07:17:49;;;;;;;1999.90;999.90;;;;;;;8.76;100.00;98911.50;5011473;28;20025;-72
2022/12/31 07:20:16;;;;;;;1999.90;999.90;;;;;;;9.33;100.00;98928.03;5008635;28;20038;-73
2022/12/31 07:22:43;;;;;;;1999.90;999.90;;;;;;;10.16;100.00;98934.47;5010121;28;20068;-73
2022/12/31 07:25:12;;;;;;;1999.90;999.90;;;;;;;10.75;100.00;98927.47;5015556;28;20038;-72
2022/12/31 07:27:46;;;;;;;1999.90;999.90;;;;;;;11.05;100.00;98939.53;5030301;28;20033;-73
2022/12/31 07:30:21;;;;;;;1999.90;999.90;;;;;;;11.34;100.00;98945.28;5018703;28;20532;-73
2022/12/31 07:32:53;;;;;;;1999.90;999.90;;;;;;;12.07;100.00;98954.72;5010308;28;20398;-73
2022/12/31 07:35:39;;;;;;;1999.90;999.90;;;;;;;12.55;100.00;98953.09;5038821;28;20091;-73
2022/12/31 07:38:32;;;;;;;1999.90;999.90;;;;;;;12.14;100.00;98953.31;5033280;28;20040;-72
2022/12/31 07:41:20;;;;;;;1999.90;999.90;;;;;;;11.60;100.00;98953.19;5032830;28;20471;-72
2022/12/31 07:43:45;;;;;;;1999.90;999.90;;;;;;;11.33;100.00;98957.34;5012204;28;20112;-73
2022/12/31 07:46:45;;;;;;;1999.90;999.90;;;;;;;11.10;100.00;98966.91;5014104;28;20510;-73
2022/12/31 07:49:12;;;;;;;1999.90;999.90;;;;;;;11.86;100.00;98975.91;5013947;28;20647;-73
2022/12/31 07:51:38;;;;;;;1999.90;999.90;;;;;;;12.70;100.00;98986.78;5012929;28;20063;-73
2022/12/31 07:54:04;;;;;;;1999.90;999.90;;;;;;;12.86;100.00;98993.81;5015724;28;20069;-73
2022/12/31 07:56:30;;;;;;;1999.90;999.90;;;;;;;12.87;100.00;98992.69;5024171;28;20026;-73
2022/12/31 07:59:14;;;;;;;1999.90;999.90;;;;;;;13.27;100.00;98996.31;5024480;28;20112;-73
2022/12/31 08:02:01;;;;;;;1999.90;999.90;;;;;;;13.55;100.00;99001.00;5022289;28;20029;-73
2022/12/31 08:04:55;;;;;;;1999.90;999.90;;;;;;;12.93;100.00;99009.97;5020890;28;20025;-73
2022/12/31 08:07:54;;;;;;;1999.90;999.90;;;;;;;12.27;100.00;99012.25;5020691;28;20037;-73
2022/12/31 08:10:20;;;;;;;1999.90;999.90;;;;;;;12.58;100.00;99016.50;5000359;28;20046;-72
2022/12/31 08:12:48;;;;;;;1999.90;999.90;;;;;;;13.06;100.00;99016.75;5022657;28;20034;-73
2022/12/31 08:15:17;;;;;;;1999.90;999.90;;;;;;;14.31;100.00;99038.75;5018051;28;20385;-74
2022/12/31 08:17:43;;;;;;;1999.90;999.90;;;;;;;14.01;100.00;99031.63;5014260;28;20029;-75
2022/12/31 08:20:14;;;;;;;1999.90;999.90;;;;;;;14.26;100.00;99036.03;5030693;28;20052;-73
2022/12/31 08:23:41;;;;;;;1999.90;999.90;;;;;;;13.12;100.00;99038.47;5031136;28;20021;-73
2022/12/31 08:26:31;;;;;;;1999.90;999.90;;;;;;;12.26;100.00;99029.78;5020307;28;20427;-73
2022/12/31 08:29:21;;;;;;;1999.90;999.90;;;;;;;11.58;100.00;99029.38;5026576;28;20038;-73
2022/12/31 08:32:17;;;;;;;1999.90;999.90;;;;;;;11.11;100.00;99034.28;5012557;28;20029;-74
2022/12/31 08:34:42;;;;;;;;;;;;;;;10.76;100.00;99040.50;5002415;28;20070;-73
2022/12/31 08:37:26;;;;;;;;;;;;;;;10.37;100.00;99048.28;5011790;28;19936;-73
2022/12/31 08:40:18;;;;;;;1999.90;999.90;;;;;;;10.14;100.00;99048.75;5011116;28;19913;-73
2022/12/31 08:43:07;;;;;;;1999.90;999.90;;;;;;;10.38;100.00;99052.69;5017646;28;20036;-73
2022/12/31 08:45:50;;;;;;;1999.90;999.90;;;;;;;10.24;100.00;99053.44;5026460;28;20105;-74
2022/12/31 08:48:23;;;;;;;1999.90;999.90;;;;;;;10.11;100.00;99062.91;5011190;28;20034;-74
2022/12/31 08:50:49;;;;;;;1999.90;999.90;;;;;;;10.18;100.00;99068.97;5011132;28;20033;-73
2022/12/31 08:53:14;;;;;;;1999.90;999.90;;;;;;;10.13;100.00;99069.78;5010915;28;20049;-73
2022/12/31 08:55:45;;;;;;;1999.90;999.90;;;;;;;10.03;100.00;99066.97;5012012;28;20075;-74
2022/12/31 08:58:29;;;;;;;1999.90;999.90;;;;;;;9.98;100.00;99069.66;5016405;28;20030;-73
2022/12/31 09:00:56;;;;;;;1999.90;999.90;;;;;;;10.02;100.00;99076.22;5031502;28;20120;-73
2022/12/31 09:03:28;;;;;;;1999.90;999.90;;;;;;;10.09;100.00;99081.47;5031405;28;20018;-73
2022/12/31 09:06:01;;;;;;;1999.90;999.90;;;;;;;10.04;100.00;99081.44;5031205;28;20021;-73
2022/12/31 09:08:44;;;;;;;1999.90;999.90;;;;;;;10.12;100.00;99089.16;5031205;28;20022;-73
2022/12/31 09:11:18;;;;;;;1999.90;999.90;;;;;;;10.18;100.00;99088.13;5030901;28;20041;-73
2022/12/31 09:14:18;;;;;;;1999.90;999.90;;;;;;;10.21;100.00;99082.94;5029410;28;20041;-72
2022/12/31 09:16:51;;;;;;;1999.90;999.90;;;;;;;10.21;100.00;99076.69;5030427;28;20033;-74
2022/12/31 09:19:16;;;;;;;1999.90;999.90;;;;;;;10.38;100.00;99077.28;5030091;28;20037;-73
2022/12/31 09:21:45;;;;;;;1999.90;999.90;;;;;;;10.44;100.00;99080.88;5031530;28;20478;-73
2022/12/31 09:24:14;;;;;;;1999.90;999.90;;;;;;;10.60;100.00;99080.69;5030539;28;20029;-73
2022/12/31 09:27:11;;;;;;;1999.90;999.90;;;;;;;10.64;100.00;99076.31;5033186;28;20536;-75
2022/12/31 09:29:37;;;;;;;1999.90;999.90;;;;;;;10.70;100.00;99079.91;5027111;28;20406;-74
2022/12/31 09:32:02;;;;;;;1999.90;999.90;;;;;;;10.78;100.00;99079.38;5020725;28;20028;-74
2022/12/31 09:35:03;;;;;;;1999.90;999.90;;;;;;;11.03;100.00;99067.66;5020422;28;20556;-74
2022/12/31 09:37:48;;;;;;;1999.90;999.90;;;;;;;11.38;100.00;99039.50;5020620;28;20120;-74
2022/12/31 09:40:36;;;;;;;1999.90;999.90;;;;;;;12.11;100.00;99051.78;5022343;28;20022;-74
2022/12/31 09:43:21;;;;;;;1999.90;999.90;;;;;;;12.61;100.00;99056.28;5022641;28;20030;-74
2022/12/31 09:46:08;;;;;;;1999.90;999.90;;;;;;;14.06;100.00;99067.34;5019409;28;20042;-74
2022/12/31 09:49:03;;;;;;;1999.90;999.90;;;;;;;16.08;100.00;99081.09;5021771;28;20030;-75
2022/12/31 09:51:49;;;;;;;1999.90;999.90;;;;;;;17.30;100.00;99084.97;5023838;28;20037;-75
2022/12/31 09:54:25;;;;;;;1999.90;999.90;;;;;;;18.36;100.00;99087.88;5022407;28;20060;-74
2022/12/31 09:57:18;;;;;;;1999.90;999.90;;;;;;;18.94;100.00;99080.16;5020431;28;20017;-74
2022/12/31 10:00:08;;;;;;;1999.90;999.90;;;;;;;18.08;100.00;99074.22;5020748;28;20018;-77
2022/12/31 10:02:49;;;;;;;1999.90;999.90;;;;;;;18.81;97.82;99074.75;5016883;28;20030;-76
2022/12/31 10:05:44;;;;;;;1999.90;999.90;;;;;;;19.37;92.82;99071.09;5021580;28;20129;-72
2022/12/31 10:08:35;;;;;;;1999.90;999.90;;;;;;;19.55;89.59;99064.44;5041912;28;20083;-74
2022/12/31 10:11:23;;;;;;;1999.90;999.90;;;;;;;18.44;92.44;99065.78;5030515;28;20116;-73
2022/12/31 10:14:10;;;;;;;1999.90;999.90;;;;;;;18.90;87.04;99068.09;5037569;28;20053;-72
2022/12/31 10:17:18;;;;;;;1999.90;999.90;;;;;;;19.59;80.66;99068.19;5021076;28;20083;-72
2022/12/31 10:20:26;;;;;;;1999.90;999.90;;;;;;;19.74;77.99;99064.91;5023722;28;20397;-72
2022/12/31 10:23:19;;;;;;;1999.90;999.90;;;;;;;19.46;79.17;99058.06;5013113;28;20033;-73
2022/12/31 10:26:09;;;;;;;1999.90;999.90;;;;;;;18.73;79.45;99056.13;5028320;28;20030;-74
2022/12/31 10:28:43;;;;;;;1999.90;999.90;;;;;;;18.76;81.40;99072.94;5036171;28;20031;-75
2022/12/31 10:31:11;;;;;;;1999.90;999.90;;;;;;;20.18;74.33;99083.97;5028647;28;20025;-76
2022/12/31 10:33:53;;;;;;;1999.90;999.90;;;;;;;21.01;70.07;99086.28;5041049;28;20068;-75
2022/12/31 10:36:52;;;;;;;1999.90;999.90;;;;;;;20.10;71.66;99084.81;5039718;28;20126;-76
2022/12/31 10:39:17;;;;;;;1999.90;999.90;;;;;;;19.85;71.19;99076.50;5018596;28;20021;-77
2022/12/31 10:42:03;;;;;;;1999.90;999.90;;;;;;;19.40;74.42;99082.41;5032942;28;20033;-77
2022/12/31 10:44:57;;;;;;;1999.90;999.90;;;;;;;20.01;71.16;99081.25;5035418;28;20045;-76
2022/12/31 10:47:43;;;;;;;1999.90;999.90;;;;;;;20.15;70.14;99084.63;5019352;28;20486;-75
2022/12/31 10:50:46;;;;;;;1999.90;999.90;;;;;;;20.12;70.36;99093.63;5036471;28;20510;-72
2022/12/31 10:53:35;;;;;;;1999.90;999.90;;;;;;;20.13;70.21;99086.94;5015457;28;20416;-74
2022/12/31 10:56:07;;;;;;;1999.90;999.90;;;;;;;19.85;69.83;99082.88;5036878;28;20393;-74
2022/12/31 10:59:21;;;;;;;1999.90;999.90;;;;;;;19.43;73.17;99083.69;5043053;28;20033;-72
2022/12/31 11:02:19;;;;;;;1999.90;999.90;;;;;;;19.99;70.61;99077.94;5001162;28;20057;-76
2022/12/31 11:05:12;;;;;;;1999.90;999.90;;;;;;;19.83;71.49;99079.59;5028905;28;20022;-75
2022/12/31 11:08:09;;;;;;;1999.90;999.90;;;;;;;19.27;71.47;99080.53;5041472;28;20124;-75
2022/12/31 11:10:47;;;;;;;1999.90;999.90;;;;;;;18.93;75.04;99083.25;5047666;28;20119;-75
2022/12/31 11:13:47;;;;;;;1999.90;999.90;;;;;;;18.39;75.33;99076.16;5021855;28;20029;-78
2022/12/31 11:16:26;;;;;;;1999.90;999.90;;;;;;;18.44;76.68;99076.88;5041997;28;20045;-74
2022/12/31 11:19:06;;;;;;;1999.90;999.90;;;;;;;18.33;77.68;99066.34;5030493;28;20041;-74
2022/12/31 11:21:34;;;;;;;1999.90;999.90;;;;;;;17.86;78.55;99077.00;5043272;28;20110;-73
2022/12/31 11:24:18;;;;;;;1999.90;999.90;;;;;;;18.27;78.00;99074.00;5041324;28;20468;-75
2022/12/31 11:27:17;;;;;;;1999.90;999.90;;;;;;;18.01;77.26;99065.53;5047961;28;20033;-74